createdAt,value
2022-12-31T00:02:58.745Z,1.10
2022-12-31T00:07:00.701Z,1.10
2022-12-31T00:11:02.389Z,0.90
2022-12-31T00:15:04.412Z,0.80
2022-12-31T00:19:08.306Z,1.00
2022-12-31T00:23:11.148Z,0.80
2022-12-31T00:27:12.915Z,0.93
2022-12-31T00:31:26.523Z,1.10
2022-12-31T00:35:28.094Z,0.90
2022-12-31T00:39:29.824Z,0.88
2022-12-31T00:43:31.469Z,0.98
2022-12-31T00:47:33.083Z,0.70
2022-12-31T00:51:34.683Z,1.02
2022-12-31T00:55:36.272Z,0.60
2022-12-31T00:59:37.881Z,0.88
2022-12-31T01:03:39.739Z,0.80
2022-12-31T01:07:41.417Z,1.00
2022-12-31T01:11:43.137Z,0.93
2022-12-31T01:15:45.032Z,0.60
2022-12-31T01:19:46.779Z,0.93
2022-12-31T01:23:48.917Z,0.70
2022-12-31T01:27:50.510Z,0.85
2022-12-31T01:31:52.125Z,0.80
2022-12-31T01:35:53.714Z,0.90
2022-12-31T01:39:55.298Z,0.90
2022-12-31T01:43:59.644Z,0.73
2022-12-31T01:48:01.678Z,0.80
2022-12-31T01:52:07.077Z,0.95
2022-12-31T01:56:09.059Z,0.60
2022-12-31T02:00:11.418Z,0.70
2022-12-31T02:04:14.817Z,0.73
2022-12-31T02:08:16.620Z,0.50
2022-12-31T02:12:18.244Z,0.80
2022-12-31T02:16:53.208Z,0.63
2022-12-31T02:21:05.823Z,0.75
2022-12-31T02:25:28.827Z,0.63
2022-12-31T02:29:53.085Z,0.70
2022-12-31T02:34:06.318Z,0.60
2022-12-31T02:38:14.057Z,0.38
2022-12-31T02:42:15.665Z,0.88
2022-12-31T02:46:33.943Z,0.63
2022-12-31T02:50:55.586Z,0.57
2022-12-31T02:55:09.069Z,0.80
2022-12-31T02:59:46.704Z,0.73
2022-12-31T03:03:48.332Z,0.63
2022-12-31T03:07:49.909Z,0.75
2022-12-31T03:12:10.427Z,0.70
2022-12-31T03:16:12.051Z,1.00
2022-12-31T03:20:32.252Z,0.65
2022-12-31T03:24:52.868Z,0.40
2022-12-31T03:28:54.433Z,0.55
2022-12-31T03:32:56.544Z,0.47
2022-12-31T03:36:58.112Z,0.60
2022-12-31T03:40:59.749Z,0.52
2022-12-31T03:45:01.506Z,0.50
2022-12-31T03:49:03.076Z,0.60
2022-12-31T03:53:04.790Z,0.50
2022-12-31T03:57:06.470Z,0.60
2022-12-31T04:01:08.254Z,0.55
2022-12-31T04:05:10.498Z,0.52
2022-12-31T04:09:12.212Z,0.55
2022-12-31T04:13:13.772Z,0.50
2022-12-31T04:17:15.343Z,0.50
2022-12-31T04:21:16.944Z,0.70
2022-12-31T04:25:18.686Z,0.50
2022-12-31T04:29:20.281Z,0.50
2022-12-31T04:33:21.917Z,0.40
2022-12-31T04:37:23.470Z,0.40
2022-12-31T04:41:27.040Z,0.60
2022-12-31T04:45:28.673Z,0.50
2022-12-31T04:49:30.267Z,0.50
2022-12-31T04:53:31.896Z,0.50
2022-12-31T04:57:33.541Z,0.68
2022-12-31T05:01:36.650Z,0.60
2022-12-31T05:05:43.388Z,0.52
2022-12-31T05:09:44.958Z,0.60
2022-12-31T05:13:46.538Z,0.40
2022-12-31T05:17:48.098Z,0.60
2022-12-31T05:22:09.689Z,0.47
2022-12-31T05:26:11.464Z,0.50
2022-12-31T05:30:13.457Z,0.50
2022-12-31T05:34:15.164Z,0.30
2022-12-31T05:38:16.899Z,0.40
2022-12-31T05:42:18.561Z,0.40
2022-12-31T05:46:20.203Z,0.30
2022-12-31T05:50:21.799Z,0.30
2022-12-31T05:54:23.390Z,0.40
2022-12-31T05:58:25.066Z,0.30
2022-12-31T06:02:26.719Z,0.60
2022-12-31T06:06:28.348Z,0.63
2022-12-31T06:10:30.005Z,0.45
2022-12-31T06:14:31.769Z,0.30
2022-12-31T06:18:33.483Z,0.30
2022-12-31T06:22:35.042Z,0.40
2022-12-31T06:26:37.225Z,0.20
2022-12-31T06:30:38.826Z,0.50
2022-12-31T06:34:40.502Z,0.45
2022-12-31T06:38:44.106Z,0.30
2022-12-31T06:42:46.024Z,0.52
2022-12-31T06:46:47.836Z,0.30
2022-12-31T06:50:49.397Z,0.50
2022-12-31T06:54:51.332Z,0.30
2022-12-31T06:58:53.253Z,0.50
2022-12-31T07:03:21.664Z,0.35
2022-12-31T07:07:42.186Z,0.43
2022-12-31T07:11:57.275Z,0.40
2022-12-31T07:16:07.531Z,0.20
2022-12-31T07:20:11.070Z,0.28
2022-12-31T07:24:13.317Z,0.20
2022-12-31T07:28:39.701Z,0.40
2022-12-31T07:33:23.108Z,0.45
2022-12-31T07:37:42.031Z,0.35
2022-12-31T07:41:58.187Z,0.28
2022-12-31T07:46:17.236Z,0.30
2022-12-31T07:50:19.826Z,0.20
2022-12-31T07:54:22.416Z,0.28
2022-12-31T07:58:58.821Z,0.40
2022-12-31T08:03:25.526Z,0.45
2022-12-31T08:11:44.736Z,0.28
2022-12-31T08:15:46.512Z,0.22
2022-12-31T08:19:48.581Z,0.40
2022-12-31T08:24:11.255Z,0.30
2022-12-31T08:28:32.095Z,0.50
2022-12-31T08:32:51.453Z,0.40
2022-12-31T08:37:06.413Z,0.25
2022-12-31T08:41:20.351Z,0.25
2022-12-31T08:45:33.398Z,0.40
2022-12-31T08:49:35.868Z,0.30
2022-12-31T08:53:37.742Z,0.55
2022-12-31T08:58:03.840Z,0.40
2022-12-31T09:02:32.122Z,0.30
2022-12-31T09:06:54.561Z,0.43
2022-12-31T09:11:00.901Z,0.40
2022-12-31T09:19:47.220Z,0.20
2022-12-31T09:52:17.583Z,0.30
2022-12-31T09:56:47.748Z,0.30
2022-12-31T10:00:56.675Z,0.40
2022-12-31T10:05:37.018Z,0.30
2022-12-31T10:10:19.986Z,0.40
2022-12-31T10:14:59.309Z,0.40
2022-12-31T10:19:22.756Z,0.50
2022-12-31T10:24:00.471Z,0.45
2022-12-31T10:28:53.786Z,0.20
2022-12-31T10:33:18.219Z,0.30
2022-12-31T10:37:29.142Z,0.35
2022-12-31T10:42:07.456Z,0.40
2022-12-31T10:46:23.254Z,0.40
2022-12-31T10:50:53.570Z,0.60
2022-12-31T10:55:25.386Z,0.40
2022-12-31T10:59:45.797Z,0.30
2022-12-31T11:04:44.881Z,0.20
2022-12-31T11:09:44.856Z,0.38
2022-12-31T11:14:24.160Z,0.28
2022-12-31T11:18:55.785Z,0.35
2022-12-31T11:23:12.649Z,0.30
2022-12-31T11:27:38.538Z,0.40
2022-12-31T11:32:01.543Z,0.40
2022-12-31T11:36:36.085Z,0.30
2022-12-31T11:40:50.383Z,0.35
2022-12-31T11:44:55.946Z,0.40
2022-12-31T11:49:27.456Z,0.40
2022-12-31T11:53:57.621Z,0.30
2022-12-31T11:58:10.273Z,0.30
2022-12-31T12:02:25.098Z,0.38
2022-12-31T12:06:32.162Z,0.20
2022-12-31T12:10:50.851Z,0.20
2022-12-31T12:14:54.863Z,0.20
2022-12-31T12:19:16.412Z,0.40
2022-12-31T12:23:24.420Z,0.30
2022-12-31T12:27:31.812Z,0.30
2022-12-31T12:31:34.279Z,0.40
2022-12-31T12:35:36.191Z,0.30
2022-12-31T12:39:37.825Z,0.30
2022-12-31T12:43:39.712Z,0.30
2022-12-31T12:47:43.292Z,0.20
2022-12-31T12:51:56.758Z,0.50
2022-12-31T12:56:18.792Z,0.20
2022-12-31T13:00:23.439Z,0.20
2022-12-31T13:04:48.285Z,0.32
2022-12-31T13:09:03.026Z,0.25
2022-12-31T13:13:30.530Z,0.22
2022-12-31T13:17:54.077Z,0.22
2022-12-31T13:22:19.891Z,0.30
2022-12-31T13:26:28.403Z,0.20
2022-12-31T13:30:38.850Z,0.32
2022-12-31T13:34:44.119Z,0.30
2022-12-31T13:38:52.624Z,0.40
2022-12-31T13:43:12.855Z,0.30
2022-12-31T13:47:24.909Z,0.20
2022-12-31T13:51:45.556Z,0.22
2022-12-31T13:55:57.871Z,0.20
2022-12-31T14:00:04.251Z,0.30
2022-12-31T14:04:27.976Z,0.20
2022-12-31T14:08:29.753Z,0.35
2022-12-31T14:12:34.313Z,0.10
2022-12-31T14:16:44.045Z,0.25
2022-12-31T14:20:50.619Z,0.57
2022-12-31T14:24:52.544Z,0.30
2022-12-31T14:29:19.924Z,0.40
2022-12-31T14:33:30.049Z,0.13
2022-12-31T14:37:42.271Z,0.20
2022-12-31T14:42:02.408Z,0.20
2022-12-31T14:46:21.881Z,0.30
2022-12-31T14:50:29.656Z,0.20
2022-12-31T14:54:38.577Z,0.22
2022-12-31T14:58:42.575Z,0.22
2022-12-31T15:02:50.039Z,0.30
2022-12-31T15:07:02.156Z,0.30
2022-12-31T15:11:28.605Z,0.20
2022-12-31T15:15:48.772Z,0.30
2022-12-31T15:20:15.003Z,0.40
2022-12-31T15:24:24.029Z,0.20
2022-12-31T15:28:35.316Z,0.35
2022-12-31T15:32:41.468Z,0.40
2022-12-31T15:40:53.399Z,0.30
2022-12-31T15:45:03.905Z,0.25
2022-12-31T15:49:18.176Z,0.30
2022-12-31T15:53:29.427Z,0.40
2022-12-31T15:57:36.685Z,0.30
2022-12-31T16:01:41.636Z,0.15
2022-12-31T16:05:43.358Z,0.40
2022-12-31T16:09:52.074Z,0.20
2022-12-31T16:13:55.669Z,0.30
2022-12-31T16:18:04.415Z,0.20
2022-12-31T16:22:13.742Z,0.25
2022-12-31T16:26:15.429Z,0.20
2022-12-31T16:30:26.993Z,0.17
2022-12-31T16:34:29.157Z,0.20
2022-12-31T16:38:36.768Z,0.40
2022-12-31T16:42:44.272Z,0.40
2022-12-31T16:46:47.669Z,0.22
2022-12-31T16:50:55.843Z,0.35
2022-12-31T16:54:58.023Z,0.40
2022-12-31T16:59:30.446Z,0.30
2022-12-31T17:03:38.314Z,0.45
2022-12-31T17:07:42.446Z,0.20
2022-12-31T17:11:55.404Z,0.50
2022-12-31T17:15:58.241Z,0.20
2022-12-31T17:20:03.761Z,0.32
2022-12-31T17:24:06.417Z,0.45
2022-12-31T17:28:25.820Z,0.40
2022-12-31T17:32:36.762Z,0.30
2022-12-31T17:36:40.345Z,0.32
2022-12-31T17:40:57.218Z,0.32
2022-12-31T17:45:17.731Z,0.35
2022-12-31T17:49:27.128Z,0.40
2022-12-31T17:53:28.955Z,0.45
2022-12-31T17:57:30.630Z,0.43
2022-12-31T18:01:32.716Z,0.43
2022-12-31T18:05:34.381Z,0.60
2022-12-31T18:09:35.991Z,0.40
2022-12-31T18:13:37.645Z,0.63
2022-12-31T18:17:39.308Z,0.60
2022-12-31T18:21:42.873Z,0.68
2022-12-31T18:29:45.230Z,0.55
2022-12-31T18:33:47.756Z,0.88
2022-12-31T18:37:49.411Z,0.88
2022-12-31T18:41:51.425Z,0.80
2022-12-31T18:45:53.489Z,1.20
2022-12-31T18:49:55.239Z,1.27
2022-12-31T18:53:56.970Z,1.50
2022-12-31T18:57:58.630Z,1.35
2022-12-31T19:02:00.355Z,1.25
2022-12-31T19:06:02.030Z,1.40
2022-12-31T19:10:03.832Z,1.55
2022-12-31T19:14:21.697Z,1.58
2022-12-31T19:18:23.737Z,1.38
2022-12-31T19:22:25.463Z,1.77
2022-12-31T19:26:27.179Z,1.08
2022-12-31T19:30:31.449Z,1.20
2022-12-31T19:34:33.148Z,1.38
2022-12-31T19:38:35.085Z,1.50
2022-12-31T19:42:36.679Z,1.60
2022-12-31T19:46:38.532Z,2.08
2022-12-31T19:50:42.793Z,2.15
2022-12-31T19:54:44.528Z,1.45
2022-12-31T19:58:46.439Z,1.70
2022-12-31T20:02:49.423Z,1.80
2022-12-31T20:06:51.189Z,1.92
2022-12-31T20:10:52.783Z,1.92
2022-12-31T20:14:54.587Z,1.58
2022-12-31T20:18:56.371Z,2.25
2022-12-31T20:22:58.312Z,1.95
2022-12-31T20:27:00.111Z,1.92
2022-12-31T20:31:06.750Z,1.80
2022-12-31T20:35:08.442Z,1.67
2022-12-31T20:39:10.073Z,1.98
2022-12-31T20:43:11.732Z,1.70
2022-12-31T20:47:13.379Z,2.30
2022-12-31T20:51:16.368Z,2.10
2022-12-31T20:55:18.159Z,2.00
2022-12-31T20:59:19.780Z,1.83
2022-12-31T21:04:02.219Z,2.00
2022-12-31T21:07:43.032Z,2.33
2022-12-31T21:12:03.518Z,1.60
2022-12-31T21:16:05.330Z,1.83
2022-12-31T21:20:07.680Z,2.30
2022-12-31T21:24:09.749Z,1.67
2022-12-31T21:28:12.699Z,1.75
2022-12-31T21:32:14.351Z,1.52
2022-12-31T21:36:16.391Z,1.50
2022-12-31T21:40:18.220Z,1.88
2022-12-31T21:44:24.637Z,2.10
2022-12-31T21:48:26.335Z,1.85
2022-12-31T21:52:30.188Z,1.70
2022-12-31T21:56:31.843Z,1.75
2022-12-31T22:00:52.116Z,1.70
2022-12-31T22:05:02.606Z,1.98
2022-12-31T22:09:05.159Z,1.60
2022-12-31T22:13:06.820Z,1.40
2022-12-31T22:17:08.439Z,1.85
2022-12-31T22:21:18.224Z,1.42
2022-12-31T22:25:20.877Z,1.52
2022-12-31T22:29:23.661Z,1.48
2022-12-31T22:33:25.605Z,1.30
2022-12-31T22:37:55.680Z,1.20
2022-12-31T22:41:49.024Z,1.25
2022-12-31T22:45:50.671Z,1.17
2022-12-31T22:49:52.269Z,1.02
2022-12-31T22:53:54.092Z,1.40
2022-12-31T22:57:55.847Z,1.48
2022-12-31T23:01:57.464Z,0.93
2022-12-31T23:05:59.166Z,1.30
2022-12-31T23:10:19.292Z,1.52
2022-12-31T23:14:40.284Z,1.30
2022-12-31T23:19:05.360Z,1.75
2022-12-31T23:23:11.939Z,1.33
2022-12-31T23:27:13.768Z,0.90
2022-12-31T23:31:15.440Z,1.20
2022-12-31T23:35:17.123Z,1.30
2022-12-31T23:39:19.035Z,1.10
2022-12-31T23:43:22.562Z,1.08
2022-12-31T23:47:24.209Z,1.10
2022-12-31T23:51:25.846Z,1.20
2022-12-31T23:55:27.492Z,1.38
2022-12-31T23:59:29.138Z,1.70
